createdAt,value
2018-09-02T00:00:25.132Z,1.40
2018-09-02T00:01:25.129Z,1.60
2018-09-02T00:02:25.120Z,1.70
2018-09-02T00:03:25.113Z,1.60
2018-09-02T00:04:25.114Z,1.50
2018-09-02T00:05:25.103Z,1.40
2018-09-02T00:06:25.103Z,1.50
2018-09-02T00:07:25.117Z,1.30
2018-09-02T00:08:25.089Z,1.30
2018-09-02T00:09:25.081Z,1.40
2018-09-02T00:10:25.073Z,1.40
2018-09-02T00:11:25.066Z,1.50
2018-09-02T00:12:25.063Z,1.40
2018-09-02T00:13:25.069Z,1.40
2018-09-02T00:14:25.061Z,1.50
2018-09-02T00:15:25.061Z,1.50
2018-09-02T00:16:25.051Z,1.40
2018-09-02T00:17:25.057Z,1.50
2018-09-02T00:18:25.037Z,1.50
2018-09-02T00:19:25.036Z,1.70
2018-09-02T00:20:25.068Z,1.20
2018-09-02T00:21:25.030Z,1.50
2018-09-02T00:22:25.035Z,1.70
2018-09-02T00:23:25.028Z,1.40
2018-09-02T00:24:25.012Z,1.60
2018-09-02T00:25:25.011Z,1.60
2018-09-02T00:26:25.021Z,1.50
2018-09-02T00:27:25.009Z,1.30
2018-09-02T00:28:25.027Z,1.60
2018-09-02T00:29:25.002Z,1.60
2018-09-02T00:30:25.035Z,1.50
2018-09-02T00:31:24.991Z,1.40
2018-09-02T00:32:24.976Z,1.40
2018-09-02T00:33:25.049Z,1.60
2018-09-02T00:34:24.970Z,1.60
2018-09-02T00:35:24.955Z,1.60
2018-09-02T00:36:24.965Z,1.60
2018-09-02T00:37:24.946Z,1.80
2018-09-02T00:38:24.945Z,1.60
2018-09-02T00:39:24.937Z,1.50
2018-09-02T00:40:24.938Z,1.50
2018-09-02T00:41:24.937Z,1.70
2018-09-02T00:42:24.938Z,1.60
2018-09-02T00:43:24.925Z,1.40
2018-09-02T00:44:24.912Z,1.40
2018-09-02T00:45:24.911Z,1.70
2018-09-02T00:46:24.891Z,1.70
2018-09-02T00:47:24.905Z,1.70
2018-09-02T00:48:24.895Z,1.60
2018-09-02T00:49:24.909Z,1.30
2018-09-02T00:50:24.883Z,1.30
2018-09-02T00:51:24.932Z,1.60
2018-09-02T00:52:24.881Z,1.40
2018-09-02T00:53:24.876Z,1.60
2018-09-02T00:54:24.874Z,1.60
2018-09-02T00:55:24.855Z,1.50
2018-09-02T00:56:24.858Z,1.50
2018-09-02T00:57:24.856Z,1.50
2018-09-02T00:58:24.852Z,1.70
2018-09-02T00:59:24.840Z,1.40
2018-09-02T01:00:24.846Z,1.60
2018-09-02T01:01:24.833Z,1.60
2018-09-02T01:02:24.835Z,1.50
2018-09-02T01:03:24.821Z,1.70
2018-09-02T01:04:24.821Z,1.60
2018-09-02T01:05:24.818Z,1.50
2018-09-02T01:06:24.813Z,1.60
2018-09-02T01:07:24.803Z,1.60
2018-09-02T01:08:24.814Z,1.60
2018-09-02T01:09:24.809Z,1.40
2018-09-02T01:10:27.013Z,1.60
2018-09-02T01:11:24.782Z,1.50
2018-09-02T01:12:24.781Z,1.70
2018-09-02T01:13:24.776Z,1.70
2018-09-02T01:14:24.783Z,1.60
2018-09-02T01:15:24.775Z,1.60
2018-09-02T01:16:24.783Z,1.70
2018-09-02T01:17:24.752Z,1.60
2018-09-02T01:18:24.762Z,1.80
2018-09-02T01:19:24.745Z,1.70
2018-09-02T01:20:24.784Z,1.60
2018-09-02T01:21:24.733Z,1.70
2018-09-02T01:22:24.725Z,1.80
2018-09-02T01:23:24.736Z,1.60
2018-09-02T01:24:24.716Z,1.50
2018-09-02T01:25:24.725Z,1.60
2018-09-02T01:26:24.706Z,1.70
2018-09-02T01:27:24.708Z,1.60
2018-09-02T01:28:24.703Z,1.80
2018-09-02T01:29:24.690Z,1.70
2018-09-02T01:30:24.692Z,1.80
2018-09-02T01:31:24.702Z,1.80
2018-09-02T01:32:24.688Z,1.70
2018-09-02T01:33:24.678Z,1.80
2018-09-02T01:34:24.671Z,1.70
2018-09-02T01:35:24.665Z,1.60
2018-09-02T01:36:24.658Z,1.60
2018-09-02T01:37:24.662Z,1.70
2018-09-02T01:38:24.664Z,1.60
2018-09-02T01:39:24.645Z,1.70
2018-09-02T01:40:24.643Z,1.70
2018-09-02T01:41:24.642Z,1.50
2018-09-02T01:42:24.631Z,1.50
2018-09-02T01:43:24.636Z,1.60
2018-09-02T01:44:24.625Z,1.70
2018-09-02T01:45:24.617Z,1.80
2018-09-02T01:46:24.612Z,1.70
2018-09-02T01:47:24.603Z,1.70
2018-09-02T01:48:24.603Z,1.60
2018-09-02T01:49:24.611Z,1.70
2018-09-02T01:50:24.596Z,1.60
2018-09-02T01:51:24.592Z,1.70
2018-09-02T01:52:24.586Z,1.60
2018-09-02T01:53:24.581Z,1.70
2018-09-02T01:54:24.568Z,1.60
2018-09-02T01:55:24.578Z,1.70
2018-09-02T01:56:24.567Z,1.70
2018-09-02T01:57:24.566Z,1.80
2018-09-02T01:58:24.558Z,1.70
2018-09-02T01:59:24.549Z,1.80
2018-09-02T02:00:24.541Z,1.60
2018-09-02T02:01:24.541Z,1.70
2018-09-02T02:02:24.548Z,1.70
2018-09-02T02:03:24.528Z,1.80
2018-09-02T02:04:24.554Z,1.70
2018-09-02T02:05:24.512Z,1.80
2018-09-02T02:06:24.524Z,1.70
2018-09-02T02:07:24.512Z,1.70
2018-09-02T02:08:24.512Z,1.90
2018-09-02T02:09:24.501Z,1.80
2018-09-02T02:10:24.512Z,1.50
2018-09-02T02:11:24.497Z,1.70
2018-09-02T02:12:24.481Z,1.70
2018-09-02T02:13:24.491Z,1.70
2018-09-02T02:14:24.488Z,1.80
2018-09-02T02:15:24.473Z,1.60
2018-09-02T02:16:24.462Z,1.70
2018-09-02T02:17:24.469Z,1.80
2018-09-02T02:18:24.458Z,1.80
2018-09-02T02:19:24.453Z,1.90
2018-09-02T02:20:24.452Z,1.80
2018-09-02T02:21:24.447Z,1.70
2018-09-02T02:22:24.444Z,1.70
2018-09-02T02:23:24.442Z,1.90
2018-09-02T02:24:24.427Z,1.80
2018-09-02T02:25:24.449Z,1.90
2018-09-02T02:26:24.419Z,1.70
2018-09-02T02:27:24.417Z,1.70
2018-09-02T02:28:24.419Z,1.50
2018-09-02T02:29:24.402Z,1.70
2018-09-02T02:30:24.397Z,1.80
2018-09-02T02:31:24.397Z,1.80
2018-09-02T02:32:24.385Z,1.70
2018-09-02T02:33:24.387Z,1.70
2018-09-02T02:34:24.377Z,1.70
2018-09-02T02:35:24.367Z,1.70
2018-09-02T02:36:24.369Z,1.80
2018-09-02T02:37:24.369Z,1.70
2018-09-02T02:38:24.356Z,1.50
2018-09-02T02:39:24.352Z,1.60
2018-09-02T02:40:24.351Z,1.80
2018-09-02T02:41:24.353Z,1.80
2018-09-02T02:42:24.338Z,1.70
2018-09-02T02:43:24.338Z,1.70
2018-09-02T02:44:24.348Z,1.50
2018-09-02T02:45:24.338Z,1.80
2018-09-02T02:46:24.339Z,1.70
2018-09-02T02:47:24.330Z,1.80
2018-09-02T02:48:24.307Z,1.90
2018-09-02T02:49:24.298Z,1.70
2018-09-02T02:50:24.295Z,1.90
2018-09-02T02:51:24.293Z,1.70
2018-09-02T02:52:24.293Z,1.70
2018-09-02T02:53:24.292Z,1.80
2018-09-02T02:54:24.298Z,1.70
2018-09-02T02:55:24.272Z,1.80
2018-09-02T02:56:24.274Z,1.90
2018-09-02T02:57:24.262Z,1.70
2018-09-02T02:58:24.267Z,1.60
2018-09-02T02:59:24.242Z,1.70
2018-09-02T03:00:24.257Z,1.80
2018-09-02T03:01:24.237Z,1.70
2018-09-02T03:02:24.238Z,1.60
2018-09-02T03:03:24.248Z,1.70
2018-09-02T03:04:24.258Z,1.60
2018-09-02T03:05:24.224Z,1.60
2018-09-02T03:06:24.218Z,1.80
2018-09-02T03:07:24.219Z,1.70
2018-09-02T03:08:24.213Z,1.90
2018-09-02T03:09:24.214Z,1.70
2018-09-02T03:10:24.204Z,1.70
2018-09-02T03:11:24.199Z,1.70
2018-09-02T03:12:24.190Z,1.80
2018-09-02T03:13:24.187Z,1.70
2018-09-02T03:14:24.183Z,1.80
2018-09-02T03:15:24.192Z,1.70
2018-09-02T03:16:24.177Z,1.80
2018-09-02T03:17:24.172Z,1.80
2018-09-02T03:18:24.168Z,1.70
2018-09-02T03:19:24.162Z,1.90
2018-09-02T03:20:24.178Z,1.80
2018-09-02T03:21:24.151Z,1.80
2018-09-02T03:22:24.144Z,1.60
2018-09-02T03:23:24.139Z,1.70
2018-09-02T03:24:24.138Z,1.80
2018-09-02T03:25:24.136Z,1.70
2018-09-02T03:26:24.130Z,1.90
2018-09-02T03:27:24.123Z,1.60
2018-09-02T03:28:24.119Z,1.70
2018-09-02T03:29:24.104Z,1.90
2018-09-02T03:30:24.110Z,1.70
2018-09-02T03:31:24.108Z,1.70
2018-09-02T03:32:24.095Z,1.80
2018-09-02T03:33:24.084Z,1.80
2018-09-02T03:34:24.101Z,1.70
2018-09-02T03:35:24.089Z,1.80
2018-09-02T03:36:24.080Z,1.80
2018-09-02T03:37:24.075Z,1.90
2018-09-02T03:38:24.065Z,1.80
2018-09-02T03:39:24.050Z,1.70
2018-09-02T03:40:24.076Z,1.70
2018-09-02T03:41:24.045Z,1.90
2018-09-02T03:42:24.060Z,1.70
2018-09-02T03:43:24.081Z,1.70
2018-09-02T03:44:24.035Z,1.80
2018-09-02T03:45:24.028Z,1.80
2018-09-02T03:46:24.043Z,1.90
2018-09-02T03:47:24.022Z,1.70
2018-09-02T03:48:24.009Z,1.80
2018-09-02T03:49:24.025Z,1.70
2018-09-02T03:50:23.999Z,1.90
2018-09-02T03:51:24.006Z,1.80
2018-09-02T03:52:24.015Z,1.80
2018-09-02T03:53:23.984Z,1.80
2018-09-02T03:54:23.979Z,1.80
2018-09-02T03:55:23.984Z,1.90
2018-09-02T03:56:23.977Z,1.70
2018-09-02T03:57:23.976Z,1.70
2018-09-02T03:58:23.958Z,1.80
2018-09-02T03:59:23.956Z,1.90
2018-09-02T04:00:23.954Z,1.80
2018-09-02T04:01:23.963Z,1.70
2018-09-02T04:02:23.943Z,1.60
2018-09-02T04:03:23.940Z,1.80
2018-09-02T04:04:23.954Z,1.80
2018-09-02T04:05:23.928Z,1.70
2018-09-02T04:06:23.925Z,1.60
2018-09-02T04:07:23.927Z,1.70
2018-09-02T04:08:23.910Z,1.70
2018-09-02T04:09:23.905Z,1.70
2018-09-02T04:10:23.913Z,1.70
2018-09-02T04:11:24.011Z,1.70
2018-09-02T04:12:23.895Z,1.80
2018-09-02T04:13:23.890Z,1.80
2018-09-02T04:14:23.885Z,1.70
2018-09-02T04:15:23.883Z,1.80
2018-09-02T04:16:23.884Z,1.80
2018-09-02T04:17:23.869Z,1.80
2018-09-02T04:18:23.881Z,1.90
2018-09-02T04:19:23.866Z,1.90
2018-09-02T04:20:23.859Z,1.70
2018-09-02T04:21:23.860Z,1.80
2018-09-02T04:22:23.846Z,1.70
2018-09-02T04:23:23.838Z,1.80
2018-09-02T04:24:23.858Z,1.70
2018-09-02T04:25:23.829Z,1.60
2018-09-02T04:26:23.824Z,1.70
2018-09-02T04:27:23.830Z,2.00
2018-09-02T04:28:23.831Z,1.80
2018-09-02T04:29:23.815Z,1.70
2018-09-02T04:30:23.815Z,1.80
2018-09-02T04:31:23.804Z,1.80
2018-09-02T04:32:23.801Z,2.00
2018-09-02T04:33:23.805Z,1.70
2018-09-02T04:34:23.824Z,1.90
2018-09-02T04:35:23.781Z,1.80
2018-09-02T04:36:23.779Z,1.80
2018-09-02T04:37:23.770Z,1.90
2018-09-02T04:38:23.779Z,1.80
2018-09-02T04:39:23.764Z,1.80
2018-09-02T04:40:23.765Z,1.80
2018-09-02T04:41:23.754Z,1.80
2018-09-02T04:42:23.751Z,1.80
2018-09-02T04:43:23.764Z,1.90
2018-09-02T04:44:23.741Z,2.00
2018-09-02T04:45:23.776Z,1.70
2018-09-02T04:46:23.729Z,1.80
2018-09-02T04:47:23.725Z,1.60
2018-09-02T04:48:23.719Z,1.80
2018-09-02T04:49:23.711Z,1.90
2018-09-02T04:50:23.704Z,1.80
2018-09-02T04:51:23.705Z,1.80
2018-09-02T04:52:23.703Z,1.80
2018-09-02T04:53:23.696Z,1.80
2018-09-02T04:54:23.873Z,1.60
2018-09-02T04:55:23.681Z,1.80
2018-09-02T04:56:23.670Z,1.80
2018-09-02T04:57:23.679Z,1.80
2018-09-02T04:58:23.684Z,1.60
2018-09-02T04:59:23.661Z,1.90
2018-09-02T05:00:23.775Z,1.70
2018-09-02T05:01:23.644Z,1.80
2018-09-02T05:02:23.645Z,1.70
2018-09-02T05:03:23.645Z,1.80
2018-09-02T05:04:23.635Z,2.00
2018-09-02T05:05:23.642Z,1.90
2018-09-02T05:06:23.625Z,1.70
2018-09-02T05:07:23.610Z,1.80
2018-09-02T05:08:23.625Z,1.60
2018-09-02T05:09:23.615Z,1.80
2018-09-02T05:10:23.634Z,1.70
2018-09-02T05:11:23.596Z,1.80
2018-09-02T05:12:23.594Z,1.80
2018-09-02T05:13:23.591Z,1.80
2018-09-02T05:14:23.590Z,1.90
2018-09-02T05:15:23.594Z,1.70
2018-09-02T05:16:23.580Z,1.70
2018-09-02T05:17:23.577Z,1.80
2018-09-02T05:18:23.569Z,1.80
2018-09-02T05:19:23.560Z,1.70
2018-09-02T05:20:23.562Z,2.00
2018-09-02T05:21:23.547Z,1.80
2018-09-02T05:22:23.551Z,1.80
2018-09-02T05:23:23.546Z,1.90
2018-09-02T05:24:23.540Z,1.90
2018-09-02T05:25:23.538Z,1.70
2018-09-02T05:26:23.532Z,1.80
2018-09-02T05:27:23.535Z,1.90
2018-09-02T05:28:23.516Z,1.70
2018-09-02T05:29:23.525Z,1.80
2018-09-02T05:30:23.511Z,1.70
2018-09-02T05:31:23.516Z,1.80
2018-09-02T05:32:23.498Z,1.80
2018-09-02T05:33:23.495Z,1.70
2018-09-02T05:34:23.486Z,1.90
2018-09-02T05:35:23.492Z,1.80
2018-09-02T05:36:23.477Z,1.80
2018-09-02T05:37:23.472Z,1.80
2018-09-02T05:38:23.461Z,2.00
2018-09-02T05:39:23.461Z,1.80
2018-09-02T05:40:23.462Z,1.60
2018-09-02T05:41:23.455Z,1.80
2018-09-02T05:42:23.455Z,1.70
2018-09-02T05:43:23.444Z,1.90
2018-09-02T05:44:23.436Z,1.60
2018-09-02T05:45:23.431Z,1.90
2018-09-02T05:46:23.431Z,1.70
2018-09-02T05:47:23.422Z,1.80
2018-09-02T05:48:23.417Z,1.90
2018-09-02T05:49:23.416Z,1.90
2018-09-02T05:50:23.415Z,1.80
2018-09-02T05:51:23.419Z,1.80
2018-09-02T05:52:23.403Z,1.70
2018-09-02T05:53:23.391Z,1.90
2018-09-02T05:54:23.418Z,1.80
2018-09-02T05:55:23.383Z,1.90
2018-09-02T05:56:23.376Z,1.70
2018-09-02T05:57:23.391Z,1.60
2018-09-02T05:58:23.381Z,1.70
2018-09-02T05:59:23.392Z,1.80
2018-09-02T06:00:23.359Z,1.90
2018-09-02T06:01:23.366Z,1.90
2018-09-02T06:02:23.356Z,1.80
2018-09-02T06:03:23.348Z,1.80
2018-09-02T06:04:23.351Z,1.80
2018-09-02T06:05:23.328Z,1.80
2018-09-02T06:06:23.333Z,1.80
2018-09-02T06:07:23.326Z,1.90
2018-09-02T06:08:23.319Z,1.70
2018-09-02T06:09:23.301Z,1.70
2018-09-02T06:10:23.311Z,1.60
2018-09-02T06:11:23.326Z,1.80
2018-09-02T06:12:23.303Z,1.80
2018-09-02T06:13:23.297Z,1.80
2018-09-02T06:14:23.301Z,1.80
2018-09-02T06:15:23.288Z,1.80
2018-09-02T06:16:23.278Z,1.80
2018-09-02T06:17:23.311Z,1.70
2018-09-02T06:18:23.277Z,1.80
2018-09-02T06:19:23.268Z,1.70
2018-09-02T06:20:23.253Z,1.70
2018-09-02T06:21:23.252Z,1.70
2018-09-02T06:22:23.252Z,1.70
2018-09-02T06:23:23.242Z,1.90
2018-09-02T06:24:23.231Z,1.80
2018-09-02T06:25:23.237Z,1.70
2018-09-02T06:26:23.232Z,1.70
2018-09-02T06:27:23.223Z,1.50
2018-09-02T06:28:23.253Z,2.00
2018-09-02T06:29:23.235Z,1.90
2018-09-02T06:30:23.212Z,1.80
2018-09-02T06:31:23.212Z,1.80
2018-09-02T06:32:23.211Z,1.80
2018-09-02T06:33:23.239Z,1.80
2018-09-02T06:34:23.187Z,1.90
2018-09-02T06:35:23.193Z,1.70
2018-09-02T06:36:23.176Z,1.70
2018-09-02T06:37:23.177Z,1.70
2018-09-02T06:38:23.170Z,1.80
2018-09-02T06:39:23.184Z,1.90
2018-09-02T06:40:23.165Z,1.70
2018-09-02T06:41:23.198Z,1.70
2018-09-02T06:42:23.157Z,1.90
2018-09-02T06:43:23.152Z,1.60
2018-09-02T06:44:23.139Z,1.80
2018-09-02T06:45:23.131Z,1.80
2018-09-02T06:46:23.121Z,1.60
2018-09-02T06:47:23.129Z,1.80
2018-09-02T06:48:23.123Z,1.60
2018-09-02T06:49:23.132Z,1.80
2018-09-02T06:50:23.113Z,1.70
2018-09-02T06:51:23.128Z,1.70
2018-09-02T06:52:23.111Z,1.70
2018-09-02T06:53:23.118Z,2.00
2018-09-02T06:54:23.083Z,1.80
2018-09-02T06:55:23.083Z,1.70
2018-09-02T06:56:23.082Z,1.80
2018-09-02T06:57:23.089Z,1.80
2018-09-02T06:58:23.064Z,1.80
2018-09-02T06:59:23.058Z,1.80
2018-09-02T07:00:23.064Z,1.90
2018-09-02T07:01:23.052Z,1.70
2018-09-02T07:02:23.058Z,1.90
2018-09-02T07:03:23.048Z,1.80
2018-09-02T07:04:23.045Z,1.70
2018-09-02T07:05:23.048Z,1.70
2018-09-02T07:06:23.033Z,1.80
2018-09-02T07:07:23.105Z,1.80
2018-09-02T07:08:23.039Z,1.80
2018-09-02T07:09:23.017Z,1.80
2018-09-02T07:10:23.054Z,1.80
2018-09-02T07:11:23.008Z,1.90
2018-09-02T07:12:23.014Z,1.80
2018-09-02T07:13:23.004Z,1.90
2018-09-02T07:14:23.017Z,1.60
2018-09-02T07:15:22.984Z,1.70
2018-09-02T07:16:23.011Z,1.60
2018-09-02T07:17:22.983Z,2.00
2018-09-02T07:18:22.991Z,1.80
2018-09-02T07:19:22.973Z,1.80
2018-09-02T07:20:22.969Z,1.80
2018-09-02T07:21:22.972Z,1.70
2018-09-02T07:22:22.967Z,1.80
2018-09-02T07:23:22.956Z,1.70
2018-09-02T07:24:22.962Z,1.70
2018-09-02T07:25:22.967Z,1.80
2018-09-02T07:26:22.938Z,1.80
2018-09-02T07:27:22.946Z,1.80
2018-09-02T07:28:22.932Z,1.90
2018-09-02T07:29:22.943Z,1.80
2018-09-02T07:30:22.919Z,1.80
2018-09-02T07:31:22.995Z,1.90
2018-09-02T07:32:22.917Z,1.60
2018-09-02T07:33:22.933Z,1.80
2018-09-02T07:34:22.902Z,1.80
2018-09-02T07:35:22.909Z,2.00
2018-09-02T07:36:22.884Z,1.80
2018-09-02T07:37:22.902Z,1.90
2018-09-02T07:38:22.894Z,1.80
2018-09-02T07:39:22.885Z,1.90
2018-09-02T07:40:22.897Z,1.90
2018-09-02T07:41:22.872Z,1.90
2018-09-02T07:42:22.861Z,1.80
2018-09-02T07:43:22.848Z,1.80
2018-09-02T07:44:22.855Z,1.60
2018-09-02T07:45:22.864Z,1.80
2018-09-02T07:46:22.844Z,1.80
2018-09-02T07:47:22.847Z,1.80
2018-09-02T07:48:22.832Z,1.90
2018-09-02T07:49:22.833Z,1.80
2018-09-02T07:50:22.838Z,1.90
2018-09-02T07:51:22.827Z,1.60
2018-09-02T07:52:22.823Z,1.80
2018-09-02T07:53:22.814Z,1.80
2018-09-02T07:54:22.811Z,1.80
2018-09-02T07:55:22.808Z,1.90
2018-09-02T07:56:22.807Z,1.60
2018-09-02T07:57:22.793Z,1.70
2018-09-02T07:58:22.798Z,1.70
2018-09-02T07:59:22.791Z,1.80
2018-09-02T08:00:22.778Z,1.80
2018-09-02T08:01:22.790Z,2.00
2018-09-02T08:02:22.764Z,1.90
2018-09-02T08:03:22.778Z,1.80
2018-09-02T08:04:22.764Z,1.80
2018-09-02T08:05:22.780Z,1.90
2018-09-02T08:06:22.784Z,1.90
2018-09-02T08:07:22.770Z,1.80
2018-09-02T08:08:22.740Z,1.70
2018-09-02T08:09:22.743Z,1.60
2018-09-02T08:10:22.743Z,1.80
2018-09-02T08:11:22.739Z,1.70
2018-09-02T08:12:22.797Z,1.70
2018-09-02T08:13:22.749Z,1.80
2018-09-02T08:14:22.732Z,1.80
2018-09-02T08:15:22.716Z,1.90
2018-09-02T08:16:22.704Z,2.00
2018-09-02T08:17:22.718Z,1.80
2018-09-02T08:18:22.704Z,1.80
2018-09-02T08:19:22.700Z,1.70
2018-09-02T08:20:22.694Z,2.00
2018-09-02T08:21:22.698Z,1.80
2018-09-02T08:22:22.684Z,1.80
2018-09-02T08:23:22.699Z,1.90
2018-09-02T08:24:22.675Z,1.80
2018-09-02T08:25:22.664Z,2.00
2018-09-02T08:26:22.674Z,1.80
2018-09-02T08:27:22.683Z,2.20
2018-09-02T08:28:22.673Z,3.20
2018-09-02T08:29:22.651Z,4.80
2018-09-02T08:30:22.644Z,3.80
2018-09-02T08:31:22.673Z,3.70
2018-09-02T08:32:22.633Z,5.40
2018-09-02T08:33:22.628Z,4.10
2018-09-02T08:34:22.631Z,3.60
2018-09-02T08:35:22.618Z,4.40
2018-09-02T08:36:22.623Z,4.40
2018-09-02T08:37:22.628Z,5.30
2018-09-02T08:38:22.625Z,4.80
2018-09-02T08:39:22.605Z,5.70
2018-09-02T08:40:22.609Z,5.20
2018-09-02T08:41:22.600Z,5.40
2018-09-02T08:42:22.615Z,5.10
2018-09-02T08:43:22.586Z,5.70
2018-09-02T08:44:22.633Z,5.50
2018-09-02T08:45:22.576Z,5.70
2018-09-02T08:46:22.573Z,5.00
2018-09-02T08:47:22.573Z,4.80
2018-09-02T08:48:22.561Z,5.10
2018-09-02T08:49:22.558Z,5.00
2018-09-02T08:50:22.599Z,5.60
2018-09-02T08:51:22.561Z,5.40
2018-09-02T08:52:22.543Z,5.20
2018-09-02T08:53:22.545Z,5.20
2018-09-02T08:54:22.535Z,5.10
2018-09-02T08:55:22.530Z,5.10
2018-09-02T08:56:22.544Z,5.50
2018-09-02T08:57:22.525Z,4.90
2018-09-02T08:58:22.535Z,5.20
2018-09-02T08:59:22.511Z,5.20
2018-09-02T09:00:22.509Z,5.00
2018-09-02T09:01:22.520Z,5.20
2018-09-02T09:02:22.500Z,5.30
2018-09-02T09:03:22.519Z,5.20
2018-09-02T09:04:22.495Z,5.00
2018-09-02T09:05:22.500Z,5.30
2018-09-02T09:06:22.485Z,5.10
2018-09-02T09:07:22.503Z,5.40
2018-09-02T09:08:22.649Z,5.20
2018-09-02T09:09:22.575Z,5.10
2018-09-02T09:10:22.465Z,5.30
2018-09-02T09:11:22.454Z,5.00
2018-09-02T09:12:22.477Z,5.30
2018-09-02T09:13:22.454Z,5.20
2018-09-02T09:14:22.456Z,4.60
2018-09-02T09:15:22.454Z,5.20
2018-09-02T09:16:22.456Z,5.30
2018-09-02T09:17:22.436Z,5.00
2018-09-02T09:18:22.431Z,5.10
2018-09-02T09:19:22.424Z,5.20
2018-09-02T09:20:22.428Z,5.30
2018-09-02T09:21:22.460Z,5.00
2018-09-02T09:22:22.415Z,5.10
2018-09-02T09:23:22.485Z,5.00
2018-09-02T09:24:22.411Z,5.00
2018-09-02T09:25:22.406Z,4.60
2018-09-02T09:26:22.400Z,4.70
2018-09-02T09:27:22.391Z,4.80
2018-09-02T09:28:22.414Z,4.90
2018-09-02T09:29:22.396Z,5.00
2018-09-02T09:30:22.382Z,5.20
2018-09-02T09:31:22.375Z,5.50
2018-09-02T09:32:22.435Z,5.10
2018-09-02T09:33:22.375Z,4.80
2018-09-02T09:34:22.359Z,5.00
2018-09-02T09:35:22.361Z,4.80
2018-09-02T09:36:22.361Z,5.10
2018-09-02T09:37:22.351Z,5.10
2018-09-02T09:38:22.335Z,5.00
2018-09-02T09:39:22.342Z,5.20
2018-09-02T09:40:22.340Z,4.70
2018-09-02T09:41:22.340Z,4.50
2018-09-02T09:42:22.327Z,4.70
2018-09-02T09:43:22.327Z,5.00
2018-09-02T09:44:22.332Z,4.90
2018-09-02T09:45:22.311Z,4.50
2018-09-02T09:46:22.320Z,4.60
2018-09-02T09:47:22.311Z,5.00
2018-09-02T09:48:22.311Z,4.90
2018-09-02T09:49:22.296Z,4.80
2018-09-02T09:50:22.300Z,4.40
2018-09-02T09:51:22.296Z,4.40
2018-09-02T09:52:22.285Z,4.80
2018-09-02T09:53:22.312Z,4.60
2018-09-02T09:54:22.279Z,4.70
2018-09-02T09:55:22.277Z,4.80
2018-09-02T09:56:22.275Z,4.70
2018-09-02T09:57:22.251Z,4.70
2018-09-02T09:58:22.261Z,4.50
2018-09-02T09:59:22.258Z,4.30
2018-09-02T10:00:22.235Z,4.70
2018-09-02T10:01:22.275Z,4.30
2018-09-02T10:02:22.236Z,4.50
2018-09-02T10:03:22.235Z,4.80
2018-09-02T10:04:22.230Z,4.40
2018-09-02T10:05:22.230Z,4.60
2018-09-02T10:06:22.216Z,4.40
2018-09-02T10:07:22.215Z,4.20
2018-09-02T10:08:22.206Z,4.30
2018-09-02T10:09:22.216Z,4.40
2018-09-02T10:10:22.226Z,4.20
2018-09-02T10:11:22.204Z,4.10
2018-09-02T10:12:22.203Z,4.50
2018-09-02T10:13:22.193Z,4.20
2018-09-02T10:14:22.208Z,4.20
2018-09-02T10:15:22.180Z,4.40
2018-09-02T10:16:22.173Z,4.30
2018-09-02T10:17:22.257Z,4.20
2018-09-02T10:18:22.171Z,3.90
2018-09-02T10:19:22.187Z,4.00
2018-09-02T10:20:22.154Z,4.20
2018-09-02T10:21:22.156Z,4.20
2018-09-02T10:22:22.160Z,4.30
2018-09-02T10:23:22.171Z,4.40
2018-09-02T10:24:22.140Z,3.90
2018-09-02T10:25:22.142Z,4.40
2018-09-02T10:26:22.127Z,4.00
2018-09-02T10:27:22.223Z,3.90
2018-09-02T10:28:22.138Z,4.20
2018-09-02T10:29:22.140Z,4.10
2018-09-02T10:30:22.136Z,4.00
2018-09-02T10:31:22.116Z,3.90
2018-09-02T10:32:22.112Z,4.30
2018-09-02T10:33:22.167Z,4.10
2018-09-02T10:34:22.096Z,4.00
2018-09-02T10:35:22.082Z,4.20
2018-09-02T10:36:22.087Z,4.10
2018-09-02T10:37:22.090Z,4.20
2018-09-02T10:38:22.087Z,4.00
2018-09-02T10:39:22.067Z,3.80
2018-09-02T10:40:22.071Z,4.00
2018-09-02T10:41:22.093Z,4.10
2018-09-02T10:42:22.067Z,4.10
2018-09-02T10:43:22.059Z,4.00
2018-09-02T10:44:22.057Z,4.20
2018-09-02T10:45:22.055Z,4.30
2018-09-02T10:46:22.047Z,3.80
2018-09-02T10:47:22.085Z,4.10
2018-09-02T10:48:22.036Z,3.70
2018-09-02T10:49:22.053Z,4.10
2018-09-02T10:50:22.050Z,3.60
2018-09-02T10:51:22.016Z,4.10
2018-09-02T10:52:22.008Z,4.20
2018-09-02T10:53:22.005Z,3.80
2018-09-02T10:54:22.010Z,4.00
2018-09-02T10:55:22.019Z,3.80
2018-09-02T10:56:21.998Z,3.90
2018-09-02T10:57:22.006Z,3.90
2018-09-02T10:58:22.001Z,4.00
2018-09-02T10:59:21.995Z,3.90
2018-09-02T11:00:22.011Z,4.10
2018-09-02T11:01:22.003Z,3.90
2018-09-02T11:02:21.977Z,4.00
2018-09-02T11:03:21.967Z,4.00
2018-09-02T11:04:21.963Z,4.00
2018-09-02T11:05:21.974Z,3.60
2018-09-02T11:06:21.953Z,3.80
2018-09-02T11:07:21.947Z,3.70
2018-09-02T11:08:21.942Z,3.80
2018-09-02T11:09:21.937Z,3.70
2018-09-02T11:10:21.932Z,3.80
2018-09-02T11:11:21.951Z,3.80
2018-09-02T11:12:21.926Z,3.50
2018-09-02T11:13:22.016Z,3.60
2018-09-02T11:14:21.948Z,3.40
2018-09-02T11:15:21.927Z,3.50
2018-09-02T11:16:21.922Z,3.80
2018-09-02T11:17:21.907Z,3.70
2018-09-02T11:18:21.908Z,3.60
2018-09-02T11:19:21.904Z,3.80
2018-09-02T11:20:21.893Z,3.50
2018-09-02T11:21:21.890Z,3.70
2018-09-02T11:22:21.888Z,3.70
2018-09-02T11:23:21.873Z,3.50
2018-09-02T11:24:21.877Z,3.50
2018-09-02T11:25:22.147Z,3.90
2018-09-02T11:26:21.874Z,3.90
2018-09-02T11:27:21.868Z,3.90
2018-09-02T11:28:21.928Z,3.30
2018-09-02T11:29:21.867Z,3.50
2018-09-02T11:30:21.861Z,3.70
2018-09-02T11:31:21.859Z,3.60
2018-09-02T11:32:21.912Z,3.80
2018-09-02T11:33:21.836Z,4.10
2018-09-02T11:34:21.919Z,3.40
2018-09-02T11:35:21.818Z,3.50
2018-09-02T11:36:21.833Z,3.30
2018-09-02T11:37:21.809Z,3.60
2018-09-02T11:38:21.853Z,3.30
2018-09-02T11:39:21.821Z,3.60
2018-09-02T11:40:21.809Z,3.40
2018-09-02T11:41:21.807Z,3.40
2018-09-02T11:42:21.796Z,3.30
2018-09-02T11:43:21.783Z,3.60
2018-09-02T11:44:21.807Z,3.60
2018-09-02T11:45:21.802Z,3.40
2018-09-02T11:46:21.784Z,3.30
2018-09-02T11:47:21.834Z,3.60
2018-09-02T11:48:21.766Z,3.30
2018-09-02T11:49:21.767Z,3.50
2018-09-02T11:50:21.778Z,3.30
2018-09-02T11:51:21.749Z,3.10
2018-09-02T11:52:21.751Z,3.50
2018-09-02T11:53:21.740Z,3.60
2018-09-02T11:54:21.767Z,3.40
2018-09-02T11:55:21.729Z,3.40
2018-09-02T11:56:21.738Z,3.90
2018-09-02T11:57:21.889Z,3.30
2018-09-02T11:58:21.729Z,3.40
2018-09-02T11:59:21.714Z,3.00
2018-09-02T12:00:21.713Z,3.40
2018-09-02T12:01:21.719Z,3.30
2018-09-02T12:02:21.728Z,3.20
2018-09-02T12:03:22.158Z,3.20
2018-09-02T12:04:21.696Z,3.30
2018-09-02T12:05:21.695Z,3.20
2018-09-02T12:06:21.696Z,3.00
2018-09-02T12:07:21.682Z,3.20
2018-09-02T12:08:21.698Z,3.40
2018-09-02T12:09:21.687Z,3.40
2018-09-02T12:10:21.666Z,3.40
2018-09-02T12:11:21.675Z,3.50
2018-09-02T12:12:21.672Z,3.20
2018-09-02T12:13:21.654Z,3.20
2018-09-02T12:14:21.779Z,3.20
2018-09-02T12:15:21.652Z,3.10
2018-09-02T12:16:21.666Z,3.00
2018-09-02T12:17:21.649Z,3.10
2018-09-02T12:18:21.642Z,3.40
2018-09-02T12:19:21.637Z,3.30
2018-09-02T12:20:21.624Z,3.20
2018-09-02T12:21:21.638Z,3.20
2018-09-02T12:22:21.647Z,3.20
2018-09-02T12:23:21.618Z,3.30
2018-09-02T12:24:21.621Z,3.30
2018-09-02T12:25:21.602Z,3.30
2018-09-02T12:26:21.598Z,3.10
2018-09-02T12:27:21.619Z,3.20
2018-09-02T12:28:21.605Z,3.40
2018-09-02T12:29:21.602Z,3.30
2018-09-02T12:30:21.579Z,3.10
2018-09-02T12:31:21.649Z,3.00
2018-09-02T12:32:21.573Z,3.10
2018-09-02T12:33:21.581Z,3.00
2018-09-02T12:34:21.568Z,3.30
2018-09-02T12:35:21.561Z,3.10
2018-09-02T12:36:21.550Z,3.30
2018-09-02T12:37:21.567Z,3.00
2018-09-02T12:38:21.573Z,3.30
2018-09-02T12:39:21.533Z,3.30
2018-09-02T12:40:21.547Z,3.10
2018-09-02T12:41:21.559Z,3.10
2018-09-02T12:42:21.594Z,3.40
2018-09-02T12:43:21.546Z,3.10
2018-09-02T12:44:21.522Z,3.00
2018-09-02T12:45:21.545Z,3.30
2018-09-02T12:46:21.547Z,3.10
2018-09-02T12:47:21.519Z,3.10
2018-09-02T12:48:21.618Z,3.40
2018-09-02T12:49:21.508Z,3.30
2018-09-02T12:50:21.543Z,2.90
2018-09-02T12:51:21.544Z,3.20
2018-09-02T12:52:21.489Z,3.20
2018-09-02T12:53:21.495Z,3.40
2018-09-02T12:54:21.528Z,3.00
2018-09-02T12:55:21.544Z,3.00
2018-09-02T12:56:22.175Z,3.20
2018-09-02T12:57:21.482Z,3.10
2018-09-02T12:58:21.474Z,3.10
2018-09-02T12:59:21.482Z,3.10
2018-09-02T13:00:21.529Z,2.80
2018-09-02T13:01:22.286Z,3.00
2018-09-02T13:02:21.440Z,2.90
2018-09-02T13:03:21.448Z,2.90
2018-09-02T13:04:21.454Z,3.10
2018-09-02T13:05:21.439Z,3.20
2018-09-02T13:06:21.442Z,3.10
2018-09-02T13:07:21.453Z,3.00
2018-09-02T13:08:22.180Z,3.20
2018-09-02T13:09:21.420Z,2.80
2018-09-02T13:10:21.452Z,3.20
2018-09-02T13:11:21.410Z,2.90
2018-09-02T13:12:21.403Z,3.20
2018-09-02T13:13:21.400Z,3.00
2018-09-02T13:14:21.398Z,2.90
2018-09-02T13:15:21.439Z,2.90
2018-09-02T13:16:21.397Z,2.80
2018-09-02T13:17:21.395Z,2.90
2018-09-02T13:18:21.390Z,2.80